sensor_id;sensor_type;location;lat;lon;timestamp;pressure;altitude;pressure_sealevel;temperature;humidity
75409;BME280;63979;55.644;37.734;2022-12-07T00:01:54;101515.63;;;-8.31;53.07
75409;BME280;63979;55.644;37.734;2022-12-07T00:06:55;101529.31;;;-8.35;53.75
75409;BME280;63979;55.644;37.734;2022-12-07T00:11:56;101501.81;;;-8.57;54.56
75409;BME280;63979;55.644;37.734;2022-12-07T00:16:57;101520.69;;;-8.60;55.20
75409;BME280;63979;55.644;37.734;2022-12-07T00:21:57;101514.78;;;-8.79;56.08
75409;BME280;63979;55.644;37.734;2022-12-07T00:26:58;101526.78;;;-8.82;56.57
75409;BME280;63979;55.644;37.734;2022-12-07T00:31:59;101527.34;;;-8.90;54.87
75409;BME280;63979;55.644;37.734;2022-12-07T00:37:00;101530.56;;;-8.96;55.97
75409;BME280;63979;55.644;37.734;2022-12-07T00:42:02;101522.56;;;-9.02;57.08
75409;BME280;63979;55.644;37.734;2022-12-07T00:47:03;101490.69;;;-9.25;56.78
75409;BME280;63979;55.644;37.734;2022-12-07T00:52:04;101520.28;;;-9.17;57.92
75409;BME280;63979;55.644;37.734;2022-12-07T00:57:05;101539.22;;;-9.18;56.81
75409;BME280;63979;55.644;37.734;2022-12-07T01:02:06;101527.09;;;-9.19;57.13
75409;BME280;63979;55.644;37.734;2022-12-07T01:07:07;101539.25;;;-9.16;57.01
75409;BME280;63979;55.644;37.734;2022-12-07T01:12:08;101470.06;;;-9.46;57.51
75409;BME280;63979;55.644;37.734;2022-12-07T01:17:09;101490.13;;;-9.38;57.63
75409;BME280;63979;55.644;37.734;2022-12-07T01:22:10;101517.47;;;-9.23;56.82
75409;BME280;63979;55.644;37.734;2022-12-07T01:27:11;101466.69;;;-9.43;56.73
75409;BME280;63979;55.644;37.734;2022-12-07T01:32:12;101530.69;;;-9.15;57.14
75409;BME280;63979;55.644;37.734;2022-12-07T01:37:12;101528.75;;;-9.21;57.75
75409;BME280;63979;55.644;37.734;2022-12-07T01:42:13;101516.47;;;-9.26;57.15
75409;BME280;63979;55.644;37.734;2022-12-07T01:47:14;101508.56;;;-9.31;57.37
75409;BME280;63979;55.644;37.734;2022-12-07T01:52:25;101512.13;;;-9.27;56.97
75409;BME280;63979;55.644;37.734;2022-12-07T01:57:29;101497.94;;;-9.37;57.69
75409;BME280;63979;55.644;37.734;2022-12-07T02:02:34;101510.88;;;-9.37;57.85
75409;BME280;63979;55.644;37.734;2022-12-07T02:07:37;101506.53;;;-9.38;56.73
75409;BME280;63979;55.644;37.734;2022-12-07T02:12:38;101494.91;;;-9.49;57.76
75409;BME280;63979;55.644;37.734;2022-12-07T02:23:39;101497.38;;;-9.52;57.74
75409;BME280;63979;55.644;37.734;2022-12-07T02:34:08;101496.84;;;-9.66;58.88
75409;BME280;63979;55.644;37.734;2022-12-07T02:39:15;101489.56;;;-9.75;58.45
75409;BME280;63979;55.644;37.734;2022-12-07T02:44:20;101504.25;;;-9.73;59.72
75409;BME280;63979;55.644;37.734;2022-12-07T02:49:23;101451.41;;;-10.04;59.17
75409;BME280;63979;55.644;37.734;2022-12-07T02:54:26;101483.94;;;-9.87;59.18
75409;BME280;63979;55.644;37.734;2022-12-07T03:15:30;101489.47;;;-10.19;60.19
75409;BME280;63979;55.644;37.734;2022-12-07T03:20:34;101485.03;;;-10.23;60.94
75409;BME280;63979;55.644;37.734;2022-12-07T03:25:48;101490.63;;;-10.33;61.37
75409;BME280;63979;55.644;37.734;2022-12-07T03:36:21;101486.94;;;-10.40;61.63
75409;BME280;63979;55.644;37.734;2022-12-07T03:41:28;101481.53;;;-10.45;62.47
75409;BME280;63979;55.644;37.734;2022-12-07T03:51:45;101476.44;;;-10.43;62.76
75409;BME280;63979;55.644;37.734;2022-12-07T03:56:50;101467.56;;;-10.50;62.92
75409;BME280;63979;55.644;37.734;2022-12-07T04:01:54;101481.41;;;-10.48;63.06
75409;BME280;63979;55.644;37.734;2022-12-07T04:06:56;101463.72;;;-10.59;63.66
75409;BME280;63979;55.644;37.734;2022-12-07T04:11:56;101467.31;;;-10.56;63.47
75409;BME280;63979;55.644;37.734;2022-12-07T04:16:58;101469.00;;;-10.56;63.32
75409;BME280;63979;55.644;37.734;2022-12-07T04:22:00;101481.03;;;-10.57;63.37
75409;BME280;63979;55.644;37.734;2022-12-07T04:27:01;101470.38;;;-10.64;63.70
75409;BME280;63979;55.644;37.734;2022-12-07T04:32:05;101476.50;;;-10.62;64.31
75409;BME280;63979;55.644;37.734;2022-12-07T04:37:06;101459.47;;;-10.78;64.40
75409;BME280;63979;55.644;37.734;2022-12-07T04:42:07;101465.66;;;-10.75;64.66
75409;BME280;63979;55.644;37.734;2022-12-07T04:47:08;101472.41;;;-10.77;64.46
75409;BME280;63979;55.644;37.734;2022-12-07T04:52:09;101473.84;;;-10.83;64.49
75409;BME280;63979;55.644;37.734;2022-12-07T04:57:10;101470.25;;;-10.87;65.17
75409;BME280;63979;55.644;37.734;2022-12-07T05:02:11;101473.53;;;-10.91;65.67
75409;BME280;63979;55.644;37.734;2022-12-07T05:07:12;101472.50;;;-10.94;66.02
75409;BME280;63979;55.644;37.734;2022-12-07T05:12:12;101476.03;;;-10.92;66.26
75409;BME280;63979;55.644;37.734;2022-12-07T05:17:13;101436.94;;;-11.21;65.88
75409;BME280;63979;55.644;37.734;2022-12-07T05:22:15;101470.28;;;-11.06;66.52
75409;BME280;63979;55.644;37.734;2022-12-07T05:27:16;101458.28;;;-11.06;66.21
75409;BME280;63979;55.644;37.734;2022-12-07T05:32:17;101466.19;;;-11.01;66.64
75409;BME280;63979;55.644;37.734;2022-12-07T05:37:18;101464.50;;;-11.00;67.20
75409;BME280;63979;55.644;37.734;2022-12-07T05:42:19;101458.41;;;-11.03;67.36
75409;BME280;63979;55.644;37.734;2022-12-07T05:47:20;101471.69;;;-10.93;67.13
75409;BME280;63979;55.644;37.734;2022-12-07T05:52:21;101473.66;;;-10.88;67.87
75409;BME280;63979;55.644;37.734;2022-12-07T05:57:22;101450.88;;;-10.98;68.04
75409;BME280;63979;55.644;37.734;2022-12-07T06:02:23;101478.19;;;-10.82;67.51
75409;BME280;63979;55.644;37.734;2022-12-07T06:07:24;101462.84;;;-10.79;67.67
75409;BME280;63979;55.644;37.734;2022-12-07T06:12:25;101460.25;;;-10.18;66.27
75409;BME280;63979;55.644;37.734;2022-12-07T06:17:34;101471.81;;;-9.67;63.94
75409;BME280;63979;55.644;37.734;2022-12-07T06:22:56;101455.84;;;-8.39;60.57
75409;BME280;63979;55.644;37.734;2022-12-07T06:27:56;101447.66;;;-6.85;55.35
75409;BME280;63979;55.644;37.734;2022-12-07T06:32:57;101398.25;;;-5.84;51.58
75409;BME280;63979;55.644;37.734;2022-12-07T06:37:58;101440.06;;;-4.97;48.92
75409;BME280;63979;55.644;37.734;2022-12-07T06:42:59;101433.56;;;-4.27;47.68
75409;BME280;63979;55.644;37.734;2022-12-07T06:48:00;101437.84;;;-4.32;47.23
75409;BME280;63979;55.644;37.734;2022-12-07T06:53:01;101436.81;;;-3.33;45.60
75409;BME280;63979;55.644;37.734;2022-12-07T06:58:01;101440.66;;;-3.05;43.67
75409;BME280;63979;55.644;37.734;2022-12-07T07:03:03;101437.06;;;-2.40;42.75
75409;BME280;63979;55.644;37.734;2022-12-07T07:08:03;101458.75;;;-2.46;43.07
75409;BME280;63979;55.644;37.734;2022-12-07T07:13:06;101459.44;;;-1.74;40.90
75409;BME280;63979;55.644;37.734;2022-12-07T07:18:06;101438.16;;;-0.89;39.52
75409;BME280;63979;55.644;37.734;2022-12-07T07:23:07;101426.09;;;-0.17;37.97
75409;BME280;63979;55.644;37.734;2022-12-07T07:28:08;101436.59;;;-0.08;36.84
75409;BME280;63979;55.644;37.734;2022-12-07T07:33:09;101443.56;;;0.55;35.55
75409;BME280;63979;55.644;37.734;2022-12-07T07:38:10;101439.19;;;0.56;35.49
75409;BME280;63979;55.644;37.734;2022-12-07T07:43:11;101427.69;;;0.97;34.57
75409;BME280;63979;55.644;37.734;2022-12-07T07:48:12;101424.13;;;1.17;34.17
75409;BME280;63979;55.644;37.734;2022-12-07T07:53:13;101429.81;;;1.94;33.17
75409;BME280;63979;55.644;37.734;2022-12-07T07:58:14;101415.84;;;1.84;33.04
75409;BME280;63979;55.644;37.734;2022-12-07T08:03:15;101425.44;;;1.93;32.86
75409;BME280;63979;55.644;37.734;2022-12-07T08:08:15;101417.22;;;2.31;32.14
75409;BME280;63979;55.644;37.734;2022-12-07T08:13:17;101404.28;;;2.91;31.04
75409;BME280;63979;55.644;37.734;2022-12-07T08:18:17;101404.81;;;3.21;30.77
75409;BME280;63979;55.644;37.734;2022-12-07T08:23:18;101406.81;;;3.66;29.79
75409;BME280;63979;55.644;37.734;2022-12-07T08:28:19;101403.94;;;4.34;28.42
75409;BME280;63979;55.644;37.734;2022-12-07T08:33:20;101415.06;;;4.54;28.04
75409;BME280;63979;55.644;37.734;2022-12-07T08:38:23;101370.94;;;5.01;26.83
75409;BME280;63979;55.644;37.734;2022-12-07T08:43:25;101378.88;;;5.01;26.91
75409;BME280;63979;55.644;37.734;2022-12-07T08:48:25;101393.22;;;5.31;26.65
75409;BME280;63979;55.644;37.734;2022-12-07T08:53:27;101395.31;;;5.57;25.90
75409;BME280;63979;55.644;37.734;2022-12-07T08:58:29;101384.00;;;5.86;25.48
75409;BME280;63979;55.644;37.734;2022-12-07T09:03:30;101368.88;;;6.61;24.43
75409;BME280;63979;55.644;37.734;2022-12-07T09:08:39;101359.69;;;6.07;24.43
75409;BME280;63979;55.644;37.734;2022-12-07T09:13:42;101356.41;;;6.95;24.08
75409;BME280;63979;55.644;37.734;2022-12-07T09:18:42;101349.41;;;6.29;23.82
75409;BME280;63979;55.644;37.734;2022-12-07T09:23:43;101312.63;;;5.80;24.34
75409;BME280;63979;55.644;37.734;2022-12-07T09:28:44;101355.22;;;4.47;25.93
75409;BME280;63979;55.644;37.734;2022-12-07T09:33:45;101348.69;;;4.22;25.79
75409;BME280;63979;55.644;37.734;2022-12-07T09:38:46;101330.69;;;6.01;24.62
75409;BME280;63979;55.644;37.734;2022-12-07T09:43:47;101345.41;;;5.76;24.73
75409;BME280;63979;55.644;37.734;2022-12-07T09:48:49;101332.31;;;5.70;24.84
75409;BME280;63979;55.644;37.734;2022-12-07T09:53:56;101338.06;;;6.55;23.79
75409;BME280;63979;55.644;37.734;2022-12-07T09:59:00;101329.47;;;6.78;23.98
75409;BME280;63979;55.644;37.734;2022-12-07T10:04:10;101319.25;;;6.94;23.05
75409;BME280;63979;55.644;37.734;2022-12-07T10:09:15;101299.31;;;6.80;23.32
75409;BME280;63979;55.644;37.734;2022-12-07T10:14:17;101284.03;;;6.88;22.98
75409;BME280;63979;55.644;37.734;2022-12-07T10:19:29;101316.78;;;5.16;24.28
75409;BME280;63979;55.644;37.734;2022-12-07T10:24:31;101315.72;;;5.63;24.38
75409;BME280;63979;55.644;37.734;2022-12-07T10:29:34;101306.13;;;5.94;24.52
75409;BME280;63979;55.644;37.734;2022-12-07T10:34:37;101313.28;;;5.15;25.10
75409;BME280;63979;55.644;37.734;2022-12-07T10:39:52;101300.75;;;5.60;24.73
75409;BME280;63979;55.644;37.734;2022-12-07T10:50:28;101287.69;;;4.32;26.20
75409;BME280;63979;55.644;37.734;2022-12-07T11:12:12;101275.25;;;3.91;27.68
75409;BME280;63979;55.644;37.734;2022-12-07T11:17:26;101258.31;;;3.52;28.09
75409;BME280;63979;55.644;37.734;2022-12-07T11:22:45;101261.50;;;4.20;27.77
75409;BME280;63979;55.644;37.734;2022-12-07T11:28:15;101252.22;;;2.90;28.75
75409;BME280;63979;55.644;37.734;2022-12-07T11:33:33;101262.28;;;1.85;30.33
75409;BME280;63979;55.644;37.734;2022-12-07T11:38:54;101254.81;;;1.35;31.59
75409;BME280;63979;55.644;37.734;2022-12-07T11:44:07;101258.41;;;1.23;32.18
75409;BME280;63979;55.644;37.734;2022-12-07T11:49:31;101258.06;;;0.19;33.76
75409;BME280;63979;55.644;37.734;2022-12-07T11:54:40;101251.06;;;0.24;34.22
75409;BME280;63979;55.644;37.734;2022-12-07T11:59:53;101232.75;;;-0.02;34.79
75409;BME280;63979;55.644;37.734;2022-12-07T12:10:53;101225.41;;;-2.21;38.79
75409;BME280;63979;55.644;37.734;2022-12-07T12:16:05;101236.63;;;-3.38;42.24
75409;BME280;63979;55.644;37.734;2022-12-07T12:21:12;101228.13;;;-5.08;46.73
75409;BME280;63979;55.644;37.734;2022-12-07T12:26:27;101231.88;;;-5.41;48.32
75409;BME280;63979;55.644;37.734;2022-12-07T12:31:38;101229.78;;;-6.04;50.36
75409;BME280;63979;55.644;37.734;2022-12-07T12:47:38;101222.78;;;-6.83;55.06
75409;BME280;63979;55.644;37.734;2022-12-07T12:52:49;101222.56;;;-6.92;55.33
75409;BME280;63979;55.644;37.734;2022-12-07T13:03:29;101227.63;;;-7.30;57.07
75409;BME280;63979;55.644;37.734;2022-12-07T13:08:30;101220.47;;;-7.40;57.34
75409;BME280;63979;55.644;37.734;2022-12-07T13:13:32;101238.66;;;-7.38;57.94
75409;BME280;63979;55.644;37.734;2022-12-07T13:28:48;101227.31;;;-7.73;58.88
75409;BME280;63979;55.644;37.734;2022-12-07T13:33:49;101232.13;;;-7.87;59.32
75409;BME280;63979;55.644;37.734;2022-12-07T13:38:59;101172.72;;;-8.11;59.64
75409;BME280;63979;55.644;37.734;2022-12-07T13:49:19;101217.69;;;-8.09;59.52
75409;BME280;63979;55.644;37.734;2022-12-07T13:54:22;101164.81;;;-8.47;60.00
75409;BME280;63979;55.644;37.734;2022-12-07T13:59:24;101219.88;;;-8.23;60.63
75409;BME280;63979;55.644;37.734;2022-12-07T14:04:35;101211.31;;;-8.20;60.30
75409;BME280;63979;55.644;37.734;2022-12-07T14:09:36;101222.25;;;-8.30;60.70
75409;BME280;63979;55.644;37.734;2022-12-07T14:14:37;101197.66;;;-8.44;60.95
75409;BME280;63979;55.644;37.734;2022-12-07T14:19:47;101212.44;;;-8.40;61.17
75409;BME280;63979;55.644;37.734;2022-12-07T14:24:49;101192.34;;;-8.49;61.38
75409;BME280;63979;55.644;37.734;2022-12-07T14:29:50;101192.31;;;-8.51;61.79
75409;BME280;63979;55.644;37.734;2022-12-07T14:39:59;101191.28;;;-8.56;61.96
75409;BME280;63979;55.644;37.734;2022-12-07T14:45:00;101208.31;;;-8.64;62.03
75409;BME280;63979;55.644;37.734;2022-12-07T14:50:01;101189.16;;;-8.69;62.18
75409;BME280;63979;55.644;37.734;2022-12-07T14:55:02;101188.22;;;-8.71;62.58
75409;BME280;63979;55.644;37.734;2022-12-07T15:00:04;101186.31;;;-8.76;62.94
75409;BME280;63979;55.644;37.734;2022-12-07T15:05:05;101192.06;;;-8.87;63.13
75409;BME280;63979;55.644;37.734;2022-12-07T15:10:21;101149.94;;;-9.09;62.98
75409;BME280;63979;55.644;37.734;2022-12-07T15:15:22;101165.16;;;-8.92;62.96
75409;BME280;63979;55.644;37.734;2022-12-07T15:20:23;101169.41;;;-8.94;63.82
75409;BME280;63979;55.644;37.734;2022-12-07T15:25:24;101166.91;;;-8.91;64.23
75409;BME280;63979;55.644;37.734;2022-12-07T15:30:25;101156.34;;;-8.98;63.81
75409;BME280;63979;55.644;37.734;2022-12-07T15:35:26;101174.41;;;-9.00;64.05
75409;BME280;63979;55.644;37.734;2022-12-07T15:40:31;101159.53;;;-9.05;64.52
75409;BME280;63979;55.644;37.734;2022-12-07T15:45:32;101103.56;;;-9.32;64.45
75409;BME280;63979;55.644;37.734;2022-12-07T15:50:33;101140.50;;;-9.07;64.76
75409;BME280;63979;55.644;37.734;2022-12-07T15:55:34;101133.44;;;-9.13;65.25
75409;BME280;63979;55.644;37.734;2022-12-07T16:00:34;101115.81;;;-9.26;65.32
75409;BME280;63979;55.644;37.734;2022-12-07T16:05:36;101114.84;;;-9.30;65.50
75409;BME280;63979;55.644;37.734;2022-12-07T16:10:36;101135.56;;;-9.28;65.80
75409;BME280;63979;55.644;37.734;2022-12-07T16:15:41;101136.25;;;-9.34;66.18
75409;BME280;63979;55.644;37.734;2022-12-07T16:20:42;101117.09;;;-9.39;66.96
75409;BME280;63979;55.644;37.734;2022-12-07T16:25:43;101136.28;;;-9.32;66.81
75409;BME280;63979;55.644;37.734;2022-12-07T16:30:43;101132.94;;;-9.30;66.69
75409;BME280;63979;55.644;37.734;2022-12-07T16:35:45;101132.34;;;-9.21;66.72
75409;BME280;63979;55.644;37.734;2022-12-07T16:40:47;101127.06;;;-9.24;66.14
75409;BME280;63979;55.644;37.734;2022-12-07T16:45:48;101052.56;;;-9.64;66.31
75409;BME280;63979;55.644;37.734;2022-12-07T16:50:49;101117.59;;;-9.24;66.56
75409;BME280;63979;55.644;37.734;2022-12-07T16:55:50;101119.59;;;-9.15;66.43
75409;BME280;63979;55.644;37.734;2022-12-07T17:00:51;101105.59;;;-9.22;65.70
75409;BME280;63979;55.644;37.734;2022-12-07T17:05:52;101104.91;;;-9.16;65.87
75409;BME280;63979;55.644;37.734;2022-12-07T17:10:53;101089.22;;;-9.22;66.69
75409;BME280;63979;55.644;37.734;2022-12-07T17:15:58;101112.72;;;-9.15;66.42
75409;BME280;63979;55.644;37.734;2022-12-07T17:21:06;101098.78;;;-9.20;66.74
75409;BME280;63979;55.644;37.734;2022-12-07T17:26:14;101107.50;;;-9.16;66.64
75409;BME280;63979;55.644;37.734;2022-12-07T17:31:16;101087.75;;;-9.14;66.30
75409;BME280;63979;55.644;37.734;2022-12-07T17:36:27;101061.34;;;-9.32;66.33
75409;BME280;63979;55.644;37.734;2022-12-07T17:41:29;101089.22;;;-9.22;66.00
75409;BME280;63979;55.644;37.734;2022-12-07T17:46:52;101084.78;;;-9.26;66.31
75409;BME280;63979;55.644;37.734;2022-12-07T17:51:59;101091.63;;;-9.28;66.60
75409;BME280;63979;55.644;37.734;2022-12-07T17:57:19;101098.72;;;-9.21;66.39
75409;BME280;63979;55.644;37.734;2022-12-07T18:02:20;101012.25;;;-9.59;66.38
75409;BME280;63979;55.644;37.734;2022-12-07T18:07:21;100995.97;;;-9.84;67.02
75409;BME280;63979;55.644;37.734;2022-12-07T18:12:24;101077.03;;;-9.26;66.73
75409;BME280;63979;55.644;37.734;2022-12-07T18:17:25;101068.31;;;-9.30;66.82
75409;BME280;63979;55.644;37.734;2022-12-07T18:22:26;101076.09;;;-9.28;66.95
75409;BME280;63979;55.644;37.734;2022-12-07T18:27:27;101031.53;;;-9.48;67.24
75409;BME280;63979;55.644;37.734;2022-12-07T18:32:28;101075.41;;;-9.23;67.32
75409;BME280;63979;55.644;37.734;2022-12-07T18:37:30;101065.53;;;-9.36;67.09
75409;BME280;63979;55.644;37.734;2022-12-07T18:42:33;101056.16;;;-9.32;66.93
75409;BME280;63979;55.644;37.734;2022-12-07T18:47:34;101056.34;;;-9.26;67.14
75409;BME280;63979;55.644;37.734;2022-12-07T18:52:35;101012.34;;;-9.56;67.71
75409;BME280;63979;55.644;37.734;2022-12-07T18:57:36;100982.84;;;-9.63;67.66
75409;BME280;63979;55.644;37.734;2022-12-07T19:02:37;101034.63;;;-9.33;67.88
75409;BME280;63979;55.644;37.734;2022-12-07T19:07:38;101052.63;;;-9.36;67.92
75409;BME280;63979;55.644;37.734;2022-12-07T19:12:40;101036.16;;;-9.38;67.54
75409;BME280;63979;55.644;37.734;2022-12-07T19:17:41;101034.63;;;-9.33;67.85
75409;BME280;63979;55.644;37.734;2022-12-07T19:22:42;101017.03;;;-9.43;67.82
75409;BME280;63979;55.644;37.734;2022-12-07T19:27:43;101025.78;;;-9.39;68.69
75409;BME280;63979;55.644;37.734;2022-12-07T19:32:44;101018.56;;;-9.50;68.39
75409;BME280;63979;55.644;37.734;2022-12-07T19:37:45;101030.72;;;-9.47;68.01
75409;BME280;63979;55.644;37.734;2022-12-07T19:42:46;101029.00;;;-9.47;69.42
75409;BME280;63979;55.644;37.734;2022-12-07T19:47:47;101023.97;;;-9.42;68.18
75409;BME280;63979;55.644;37.734;2022-12-07T19:52:48;101040.16;;;-9.48;69.29
75409;BME280;63979;55.644;37.734;2022-12-07T19:57:49;101022.63;;;-9.58;69.26
75409;BME280;63979;55.644;37.734;2022-12-07T20:02:50;100977.78;;;-9.87;69.00
75409;BME280;63979;55.644;37.734;2022-12-07T20:07:51;101027.69;;;-9.61;69.13
75409;BME280;63979;55.644;37.734;2022-12-07T20:12:52;101032.88;;;-9.61;69.37
75409;BME280;63979;55.644;37.734;2022-12-07T20:18:12;101039.88;;;-9.57;69.39
75409;BME280;63979;55.644;37.734;2022-12-07T20:23:13;100985.78;;;-9.79;69.07
75409;BME280;63979;55.644;37.734;2022-12-07T20:28:14;101031.25;;;-9.57;68.96
75409;BME280;63979;55.644;37.734;2022-12-07T20:33:15;101024.97;;;-9.65;69.80
75409;BME280;63979;55.644;37.734;2022-12-07T20:38:16;101038.00;;;-9.62;69.70
75409;BME280;63979;55.644;37.734;2022-12-07T20:43:18;101030.25;;;-9.62;69.48
75409;BME280;63979;55.644;37.734;2022-12-07T20:48:19;101029.31;;;-9.64;69.90
75409;BME280;63979;55.644;37.734;2022-12-07T20:53:20;101013.63;;;-9.70;69.41
75409;BME280;63979;55.644;37.734;2022-12-07T20:58:21;101006.56;;;-9.75;70.13
75409;BME280;63979;55.644;37.734;2022-12-07T21:03:22;101019.50;;;-9.75;70.21
75409;BME280;63979;55.644;37.734;2022-12-07T21:08:23;101008.22;;;-9.77;69.95
75409;BME280;63979;55.644;37.734;2022-12-07T21:13:24;100999.56;;;-9.79;69.99
75409;BME280;63979;55.644;37.734;2022-12-07T21:18:26;100980.47;;;-9.84;69.98
75409;BME280;63979;55.644;37.734;2022-12-07T21:23:27;101005.66;;;-9.77;70.48
75409;BME280;63979;55.644;37.734;2022-12-07T21:28:29;100996.41;;;-9.70;69.81
75409;BME280;63979;55.644;37.734;2022-12-07T21:33:31;100990.66;;;-9.61;69.42
75409;BME280;63979;55.644;37.734;2022-12-07T21:38:32;100996.56;;;-9.65;69.84
75409;BME280;63979;55.644;37.734;2022-12-07T21:43:33;100976.81;;;-9.63;69.31
75409;BME280;63979;55.644;37.734;2022-12-07T21:48:35;100975.53;;;-9.49;69.26
75409;BME280;63979;55.644;37.734;2022-12-07T21:53:37;100967.91;;;-9.45;69.26
75409;BME280;63979;55.644;37.734;2022-12-07T21:58:38;100956.38;;;-9.56;69.51
75409;BME280;63979;55.644;37.734;2022-12-07T22:03:39;100914.00;;;-9.62;69.28
75409;BME280;63979;55.644;37.734;2022-12-07T22:08:41;100962.44;;;-9.27;69.05
75409;BME280;63979;55.644;37.734;2022-12-07T22:13:44;100917.88;;;-9.47;69.12
75409;BME280;63979;55.644;37.734;2022-12-07T22:19:05;100949.97;;;-9.10;69.39
75409;BME280;63979;55.644;37.734;2022-12-07T22:24:06;100960.66;;;-8.99;68.92
75409;BME280;63979;55.644;37.734;2022-12-07T22:29:07;100949.44;;;-9.00;69.37
75409;BME280;63979;55.644;37.734;2022-12-07T22:34:14;100902.28;;;-9.21;69.76
75409;BME280;63979;55.644;37.734;2022-12-07T22:39:15;100953.25;;;-8.86;70.01
75409;BME280;63979;55.644;37.734;2022-12-07T22:44:16;100955.94;;;-8.83;70.05
75409;BME280;63979;55.644;37.734;2022-12-07T22:49:18;100949.00;;;-8.84;70.22
75409;BME280;63979;55.644;37.734;2022-12-07T22:54:19;100960.19;;;-8.85;70.63
75409;BME280;63979;55.644;37.734;2022-12-07T22:59:20;100943.88;;;-8.82;70.66
75409;BME280;63979;55.644;37.734;2022-12-07T23:04:21;100922.50;;;-8.75;70.60
75409;BME280;63979;55.644;37.734;2022-12-07T23:09:21;100916.53;;;-8.72;70.60
75409;BME280;63979;55.644;37.734;2022-12-07T23:14:31;100913.78;;;-8.78;70.59
75409;BME280;63979;55.644;37.734;2022-12-07T23:19:33;100876.16;;;-9.00;70.41
75409;BME280;63979;55.644;37.734;2022-12-07T23:24:33;100906.69;;;-8.86;70.01
75409;BME280;63979;55.644;37.734;2022-12-07T23:29:35;100911.47;;;-8.68;70.64
75409;BME280;63979;55.644;37.734;2022-12-07T23:34:36;100909.69;;;-8.70;69.60
75409;BME280;63979;55.644;37.734;2022-12-07T23:39:37;100907.69;;;-8.81;69.87
75409;BME280;63979;55.644;37.734;2022-12-07T23:44:37;100861.78;;;-8.89;69.58
75409;BME280;63979;55.644;37.734;2022-12-07T23:49:38;100897.78;;;-8.65;70.18
75409;BME280;63979;55.644;37.734;2022-12-07T23:54:39;100882.84;;;-8.74;69.87
75409;BME280;63979;55.644;37.734;2022-12-07T23:59:40;100879.69;;;-8.64;69.92
